sensor_id;sensor_type;location;lat;lon;timestamp;temperature;humidity
65404;DHT22;52014;52.088;5.096;2022-09-09T00:00:24;16.80;99.90
65404;DHT22;52014;52.088;5.096;2022-09-09T00:02:53;16.70;99.90
65404;DHT22;52014;52.088;5.096;2022-09-09T00:07:53;16.70;99.90
65404;DHT22;52014;52.088;5.096;2022-09-09T00:10:29;16.70;99.90
65404;DHT22;52014;52.088;5.096;2022-09-09T00:15:26;16.70;99.90
65404;DHT22;52014;52.088;5.096;2022-09-09T00:18:00;16.70;99.90
65404;DHT22;52014;52.088;5.096;2022-09-09T00:23:00;16.60;99.90
65404;DHT22;52014;52.088;5.096;2022-09-09T00:25:31;16.50;99.90
65404;DHT22;52014;52.088;5.096;2022-09-09T00:27:59;16.50;99.90
65404;DHT22;52014;52.088;5.096;2022-09-09T00:30:26;16.40;99.90
65404;DHT22;52014;52.088;5.096;2022-09-09T00:32:57;16.40;99.90
65404;DHT22;52014;52.088;5.096;2022-09-09T00:35:24;16.40;99.90
65404;DHT22;52014;52.088;5.096;2022-09-09T00:37:51;16.40;99.90
65404;DHT22;52014;52.088;5.096;2022-09-09T00:40:27;16.40;99.90
65404;DHT22;52014;52.088;5.096;2022-09-09T00:43:20;16.20;99.90
65404;DHT22;52014;52.088;5.096;2022-09-09T00:46:17;16.20;99.90
65404;DHT22;52014;52.088;5.096;2022-09-09T00:51:29;16.20;99.90
65404;DHT22;52014;52.088;5.096;2022-09-09T00:54:05;16.20;99.90
65404;DHT22;52014;52.088;5.096;2022-09-09T00:59:35;16.20;99.90
65404;DHT22;52014;52.088;5.096;2022-09-09T01:02:21;16.20;99.90
65404;DHT22;52014;52.088;5.096;2022-09-09T01:04:50;16.10;99.90
65404;DHT22;52014;52.088;5.096;2022-09-09T01:07:16;16.00;99.90
65404;DHT22;52014;52.088;5.096;2022-09-09T01:09:58;16.00;99.90
65404;DHT22;52014;52.088;5.096;2022-09-09T01:12:25;16.00;99.90
65404;DHT22;52014;52.088;5.096;2022-09-09T01:15:12;16.00;99.90
65404;DHT22;52014;52.088;5.096;2022-09-09T01:20:39;16.00;99.90
65404;DHT22;52014;52.088;5.096;2022-09-09T01:28:13;15.90;99.90
65404;DHT22;52014;52.088;5.096;2022-09-09T01:30:42;15.90;99.90
65404;DHT22;52014;52.088;5.096;2022-09-09T01:33:10;16.00;99.90
65404;DHT22;52014;52.088;5.096;2022-09-09T01:38:03;15.90;99.90
65404;DHT22;52014;52.088;5.096;2022-09-09T01:40:29;15.80;99.90
65404;DHT22;52014;52.088;5.096;2022-09-09T01:42:55;15.70;99.90
65404;DHT22;52014;52.088;5.096;2022-09-09T01:45:20;15.80;99.90
65404;DHT22;52014;52.088;5.096;2022-09-09T01:47:46;15.80;99.90
65404;DHT22;52014;52.088;5.096;2022-09-09T01:50:13;15.80;99.90
65404;DHT22;52014;52.088;5.096;2022-09-09T01:52:40;15.90;99.90
65404;DHT22;52014;52.088;5.096;2022-09-09T01:55:06;15.80;99.90
65404;DHT22;52014;52.088;5.096;2022-09-09T01:57:56;15.80;99.90
65404;DHT22;52014;52.088;5.096;2022-09-09T02:00:26;15.80;99.90
65404;DHT22;52014;52.088;5.096;2022-09-09T02:07:48;15.80;99.90
65404;DHT22;52014;52.088;5.096;2022-09-09T02:12:47;15.70;99.90
65404;DHT22;52014;52.088;5.096;2022-09-09T02:15:32;15.70;99.90
65404;DHT22;52014;52.088;5.096;2022-09-09T02:18:00;15.70;99.90
65404;DHT22;52014;52.088;5.096;2022-09-09T02:20:28;15.60;99.90
65404;DHT22;52014;52.088;5.096;2022-09-09T02:22:57;15.70;99.90
65404;DHT22;52014;52.088;5.096;2022-09-09T02:25:24;15.70;99.90
65404;DHT22;52014;52.088;5.096;2022-09-09T02:27:51;15.70;99.90
65404;DHT22;52014;52.088;5.096;2022-09-09T02:30:19;15.70;99.90
65404;DHT22;52014;52.088;5.096;2022-09-09T02:32:45;15.70;99.90
65404;DHT22;52014;52.088;5.096;2022-09-09T02:35:13;15.80;99.90
65404;DHT22;52014;52.088;5.096;2022-09-09T02:37:40;15.70;99.90
65404;DHT22;52014;52.088;5.096;2022-09-09T02:40:08;15.70;99.90
65404;DHT22;52014;52.088;5.096;2022-09-09T02:42:40;15.70;99.90
65404;DHT22;52014;52.088;5.096;2022-09-09T02:45:06;15.70;99.90
65404;DHT22;52014;52.088;5.096;2022-09-09T02:47:36;15.60;99.90
65404;DHT22;52014;52.088;5.096;2022-09-09T02:55:17;15.70;99.90
65404;DHT22;52014;52.088;5.096;2022-09-09T02:57:46;15.70;99.90
65404;DHT22;52014;52.088;5.096;2022-09-09T03:00:12;15.70;99.90
65404;DHT22;52014;52.088;5.096;2022-09-09T03:02:38;15.70;99.90
65404;DHT22;52014;52.088;5.096;2022-09-09T03:05:04;15.70;99.90
65404;DHT22;52014;52.088;5.096;2022-09-09T03:07:30;15.60;99.90
65404;DHT22;52014;52.088;5.096;2022-09-09T03:09:55;15.60;99.90
65404;DHT22;52014;52.088;5.096;2022-09-09T03:12:21;15.60;99.90
65404;DHT22;52014;52.088;5.096;2022-09-09T03:14:46;15.60;99.90
65404;DHT22;52014;52.088;5.096;2022-09-09T03:17:12;15.50;99.90
65404;DHT22;52014;52.088;5.096;2022-09-09T03:19:37;15.50;99.90
65404;DHT22;52014;52.088;5.096;2022-09-09T03:22:03;15.50;99.90
65404;DHT22;52014;52.088;5.096;2022-09-09T03:24:29;15.50;99.90
65404;DHT22;52014;52.088;5.096;2022-09-09T03:26:55;15.30;99.90
65404;DHT22;52014;52.088;5.096;2022-09-09T03:29:21;15.40;99.90
65404;DHT22;52014;52.088;5.096;2022-09-09T03:31:46;15.40;99.90
65404;DHT22;52014;52.088;5.096;2022-09-09T03:34:12;15.30;99.90
65404;DHT22;52014;52.088;5.096;2022-09-09T03:36:39;15.30;99.90
65404;DHT22;52014;52.088;5.096;2022-09-09T03:39:06;15.40;99.90
65404;DHT22;52014;52.088;5.096;2022-09-09T03:41:31;15.30;99.90
65404;DHT22;52014;52.088;5.096;2022-09-09T03:43:57;15.40;99.90
65404;DHT22;52014;52.088;5.096;2022-09-09T03:46:23;15.40;99.90
65404;DHT22;52014;52.088;5.096;2022-09-09T03:48:49;15.20;99.90
65404;DHT22;52014;52.088;5.096;2022-09-09T03:51:15;15.20;99.90
65404;DHT22;52014;52.088;5.096;2022-09-09T03:53:41;15.30;99.90
65404;DHT22;52014;52.088;5.096;2022-09-09T03:56:08;15.30;99.90
65404;DHT22;52014;52.088;5.096;2022-09-09T03:58:34;15.20;99.90
65404;DHT22;52014;52.088;5.096;2022-09-09T04:01:01;15.30;99.90
65404;DHT22;52014;52.088;5.096;2022-09-09T04:03:27;15.30;99.90
65404;DHT22;52014;52.088;5.096;2022-09-09T04:05:53;15.20;99.90
65404;DHT22;52014;52.088;5.096;2022-09-09T04:08:20;15.20;99.90
65404;DHT22;52014;52.088;5.096;2022-09-09T04:10:46;15.20;99.90
65404;DHT22;52014;52.088;5.096;2022-09-09T04:13:12;15.30;99.90
65404;DHT22;52014;52.088;5.096;2022-09-09T04:15:39;15.20;99.90
65404;DHT22;52014;52.088;5.096;2022-09-09T04:18:04;15.30;99.90
65404;DHT22;52014;52.088;5.096;2022-09-09T04:20:31;15.30;99.90
65404;DHT22;52014;52.088;5.096;2022-09-09T04:22:56;15.10;99.90
65404;DHT22;52014;52.088;5.096;2022-09-09T04:25:22;15.20;99.90
65404;DHT22;52014;52.088;5.096;2022-09-09T04:27:47;15.20;99.90
65404;DHT22;52014;52.088;5.096;2022-09-09T04:30:13;15.30;99.90
65404;DHT22;52014;52.088;5.096;2022-09-09T04:32:38;15.30;99.90
65404;DHT22;52014;52.088;5.096;2022-09-09T04:35:04;15.30;99.90
65404;DHT22;52014;52.088;5.096;2022-09-09T04:37:29;15.30;99.90
65404;DHT22;52014;52.088;5.096;2022-09-09T04:39:55;15.30;99.90
65404;DHT22;52014;52.088;5.096;2022-09-09T04:42:21;15.20;99.90
65404;DHT22;52014;52.088;5.096;2022-09-09T04:44:46;15.20;99.90
65404;DHT22;52014;52.088;5.096;2022-09-09T04:47:12;15.20;99.90
65404;DHT22;52014;52.088;5.096;2022-09-09T04:49:38;15.20;99.90
65404;DHT22;52014;52.088;5.096;2022-09-09T04:52:03;15.10;99.90
65404;DHT22;52014;52.088;5.096;2022-09-09T04:54:29;15.10;99.90
65404;DHT22;52014;52.088;5.096;2022-09-09T04:56:54;15.10;99.90
65404;DHT22;52014;52.088;5.096;2022-09-09T04:59:20;15.10;99.90
65404;DHT22;52014;52.088;5.096;2022-09-09T05:01:47;15.10;99.90
65404;DHT22;52014;52.088;5.096;2022-09-09T05:04:12;15.10;99.90
65404;DHT22;52014;52.088;5.096;2022-09-09T05:06:38;15.10;99.90
65404;DHT22;52014;52.088;5.096;2022-09-09T05:09:03;15.10;99.90
65404;DHT22;52014;52.088;5.096;2022-09-09T05:11:29;15.10;99.90
65404;DHT22;52014;52.088;5.096;2022-09-09T05:13:55;15.10;99.90
65404;DHT22;52014;52.088;5.096;2022-09-09T05:16:22;15.10;99.90
65404;DHT22;52014;52.088;5.096;2022-09-09T05:18:48;15.20;99.90
65404;DHT22;52014;52.088;5.096;2022-09-09T05:21:14;15.20;99.90
65404;DHT22;52014;52.088;5.096;2022-09-09T05:23:40;15.20;99.90
65404;DHT22;52014;52.088;5.096;2022-09-09T05:26:06;15.10;99.90
65404;DHT22;52014;52.088;5.096;2022-09-09T05:28:33;15.10;99.90
65404;DHT22;52014;52.088;5.096;2022-09-09T05:31:03;15.20;99.90
65404;DHT22;52014;52.088;5.096;2022-09-09T05:33:30;15.20;99.90
65404;DHT22;52014;52.088;5.096;2022-09-09T05:35:56;15.20;99.90
65404;DHT22;52014;52.088;5.096;2022-09-09T05:38:22;15.20;99.90
65404;DHT22;52014;52.088;5.096;2022-09-09T05:40:50;15.30;99.90
65404;DHT22;52014;52.088;5.096;2022-09-09T05:43:17;15.20;99.90
65404;DHT22;52014;52.088;5.096;2022-09-09T05:45:43;15.30;99.90
65404;DHT22;52014;52.088;5.096;2022-09-09T05:48:08;15.20;99.90
65404;DHT22;52014;52.088;5.096;2022-09-09T05:50:34;15.30;99.90
65404;DHT22;52014;52.088;5.096;2022-09-09T05:52:59;15.40;99.90
65404;DHT22;52014;52.088;5.096;2022-09-09T05:55:25;15.30;99.90
65404;DHT22;52014;52.088;5.096;2022-09-09T05:57:50;15.40;99.90
65404;DHT22;52014;52.088;5.096;2022-09-09T06:00:17;15.50;99.90
65404;DHT22;52014;52.088;5.096;2022-09-09T06:02:43;15.50;99.90
65404;DHT22;52014;52.088;5.096;2022-09-09T06:05:09;15.50;99.90
65404;DHT22;52014;52.088;5.096;2022-09-09T06:07:35;15.50;99.90
65404;DHT22;52014;52.088;5.096;2022-09-09T06:10:01;15.40;99.90
65404;DHT22;52014;52.088;5.096;2022-09-09T06:12:26;15.50;99.90
65404;DHT22;52014;52.088;5.096;2022-09-09T06:14:52;15.60;99.90
65404;DHT22;52014;52.088;5.096;2022-09-09T06:17:17;15.70;99.90
65404;DHT22;52014;52.088;5.096;2022-09-09T06:19:43;16.00;99.90
65404;DHT22;52014;52.088;5.096;2022-09-09T06:22:08;16.00;99.90
65404;DHT22;52014;52.088;5.096;2022-09-09T06:24:37;16.10;99.90
65404;DHT22;52014;52.088;5.096;2022-09-09T06:27:03;16.10;99.90
65404;DHT22;52014;52.088;5.096;2022-09-09T06:29:28;16.20;99.90
65404;DHT22;52014;52.088;5.096;2022-09-09T06:31:54;16.20;99.90
65404;DHT22;52014;52.088;5.096;2022-09-09T06:34:19;16.10;99.90
65404;DHT22;52014;52.088;5.096;2022-09-09T06:36:45;16.30;99.90
65404;DHT22;52014;52.088;5.096;2022-09-09T06:39:11;16.30;99.90
65404;DHT22;52014;52.088;5.096;2022-09-09T06:41:36;16.30;99.90
65404;DHT22;52014;52.088;5.096;2022-09-09T06:44:03;16.40;99.90
65404;DHT22;52014;52.088;5.096;2022-09-09T06:46:29;16.40;99.90
65404;DHT22;52014;52.088;5.096;2022-09-09T06:48:56;16.30;99.90
65404;DHT22;52014;52.088;5.096;2022-09-09T06:51:23;16.70;99.90
65404;DHT22;52014;52.088;5.096;2022-09-09T06:53:53;17.10;99.90
65404;DHT22;52014;52.088;5.096;2022-09-09T06:56:20;17.40;99.90
65404;DHT22;52014;52.088;5.096;2022-09-09T06:58:46;17.80;99.90
65404;DHT22;52014;52.088;5.096;2022-09-09T07:01:13;17.90;99.90
65404;DHT22;52014;52.088;5.096;2022-09-09T07:03:39;17.70;99.90
65404;DHT22;52014;52.088;5.096;2022-09-09T07:06:05;17.70;99.90
65404;DHT22;52014;52.088;5.096;2022-09-09T07:08:31;17.60;99.90
65404;DHT22;52014;52.088;5.096;2022-09-09T07:11:03;17.60;99.90
65404;DHT22;52014;52.088;5.096;2022-09-09T07:13:30;17.50;99.90
65404;DHT22;52014;52.088;5.096;2022-09-09T07:16:02;17.50;99.90
65404;DHT22;52014;52.088;5.096;2022-09-09T07:18:28;17.50;99.90
65404;DHT22;52014;52.088;5.096;2022-09-09T07:20:54;17.40;99.90
65404;DHT22;52014;52.088;5.096;2022-09-09T07:23:20;17.40;99.90
65404;DHT22;52014;52.088;5.096;2022-09-09T07:25:45;17.50;99.90
65404;DHT22;52014;52.088;5.096;2022-09-09T07:28:11;17.60;99.90
65404;DHT22;52014;52.088;5.096;2022-09-09T07:30:36;17.60;99.90
65404;DHT22;52014;52.088;5.096;2022-09-09T07:33:02;17.60;99.90
65404;DHT22;52014;52.088;5.096;2022-09-09T07:35:28;17.60;99.90
65404;DHT22;52014;52.088;5.096;2022-09-09T07:37:54;17.70;99.90
65404;DHT22;52014;52.088;5.096;2022-09-09T07:40:19;17.50;99.90
65404;DHT22;52014;52.088;5.096;2022-09-09T07:42:47;17.60;99.90
65404;DHT22;52014;52.088;5.096;2022-09-09T07:45:13;17.70;99.90
65404;DHT22;52014;52.088;5.096;2022-09-09T07:47:39;17.60;99.90
65404;DHT22;52014;52.088;5.096;2022-09-09T07:50:06;17.60;99.90
65404;DHT22;52014;52.088;5.096;2022-09-09T07:52:33;17.40;99.90
65404;DHT22;52014;52.088;5.096;2022-09-09T07:54:59;17.40;99.90
65404;DHT22;52014;52.088;5.096;2022-09-09T07:57:25;17.40;99.90
65404;DHT22;52014;52.088;5.096;2022-09-09T07:59:50;17.40;99.90
65404;DHT22;52014;52.088;5.096;2022-09-09T08:02:17;17.40;99.90
65404;DHT22;52014;52.088;5.096;2022-09-09T08:04:42;17.30;99.90
65404;DHT22;52014;52.088;5.096;2022-09-09T08:07:08;17.40;99.90
65404;DHT22;52014;52.088;5.096;2022-09-09T08:09:33;17.30;99.90
65404;DHT22;52014;52.088;5.096;2022-09-09T08:11:59;17.10;99.90
65404;DHT22;52014;52.088;5.096;2022-09-09T08:14:25;17.30;99.90
65404;DHT22;52014;52.088;5.096;2022-09-09T08:16:50;17.60;99.90
65404;DHT22;52014;52.088;5.096;2022-09-09T08:19:19;17.60;99.90
65404;DHT22;52014;52.088;5.096;2022-09-09T08:21:45;17.60;99.90
65404;DHT22;52014;52.088;5.096;2022-09-09T08:24:11;17.60;99.90
65404;DHT22;52014;52.088;5.096;2022-09-09T08:26:37;17.60;99.90
65404;DHT22;52014;52.088;5.096;2022-09-09T08:29:04;17.60;99.90
65404;DHT22;52014;52.088;5.096;2022-09-09T08:31:34;17.60;99.90
65404;DHT22;52014;52.088;5.096;2022-09-09T08:34:00;17.60;99.90
65404;DHT22;52014;52.088;5.096;2022-09-09T08:36:27;17.60;99.90
65404;DHT22;52014;52.088;5.096;2022-09-09T08:38:54;17.60;99.90
65404;DHT22;52014;52.088;5.096;2022-09-09T08:49:10;17.60;99.90
65404;DHT22;52014;52.088;5.096;2022-09-09T08:51:38;17.60;99.90
65404;DHT22;52014;52.088;5.096;2022-09-09T08:54:04;17.50;99.90
65404;DHT22;52014;52.088;5.096;2022-09-09T08:56:31;17.60;99.90
65404;DHT22;52014;52.088;5.096;2022-09-09T08:58:57;17.50;99.90
65404;DHT22;52014;52.088;5.096;2022-09-09T09:03:53;17.60;99.90
65404;DHT22;52014;52.088;5.096;2022-09-09T09:06:36;17.60;99.90
65404;DHT22;52014;52.088;5.096;2022-09-09T09:11:35;17.50;99.90
65404;DHT22;52014;52.088;5.096;2022-09-09T09:14:02;17.50;99.90
65404;DHT22;52014;52.088;5.096;2022-09-09T09:16:32;17.50;99.90
65404;DHT22;52014;52.088;5.096;2022-09-09T09:18:58;17.40;99.90
65404;DHT22;52014;52.088;5.096;2022-09-09T09:21:29;17.50;99.90
65404;DHT22;52014;52.088;5.096;2022-09-09T09:23:57;17.50;99.90
65404;DHT22;52014;52.088;5.096;2022-09-09T09:26:24;17.40;99.90
65404;DHT22;52014;52.088;5.096;2022-09-09T09:28:52;17.50;99.90
65404;DHT22;52014;52.088;5.096;2022-09-09T09:31:19;17.40;99.90
65404;DHT22;52014;52.088;5.096;2022-09-09T09:33:47;17.40;99.90
65404;DHT22;52014;52.088;5.096;2022-09-09T09:36:14;17.50;99.90
65404;DHT22;52014;52.088;5.096;2022-09-09T09:38:51;17.50;99.90
65404;DHT22;52014;52.088;5.096;2022-09-09T09:41:17;17.50;99.90
65404;DHT22;52014;52.088;5.096;2022-09-09T09:43:54;17.50;99.90
65404;DHT22;52014;52.088;5.096;2022-09-09T09:46:21;17.40;99.90
65404;DHT22;52014;52.088;5.096;2022-09-09T09:49:04;17.40;99.90
65404;DHT22;52014;52.088;5.096;2022-09-09T09:51:31;17.40;99.90
65404;DHT22;52014;52.088;5.096;2022-09-09T09:54:14;17.40;99.90
65404;DHT22;52014;52.088;5.096;2022-09-09T09:56:41;17.50;99.90
65404;DHT22;52014;52.088;5.096;2022-09-09T10:01:45;17.60;99.90
65404;DHT22;52014;52.088;5.096;2022-09-09T10:04:15;17.70;99.90
65404;DHT22;52014;52.088;5.096;2022-09-09T10:06:45;17.70;99.90
65404;DHT22;52014;52.088;5.096;2022-09-09T10:09:29;17.70;99.90
65404;DHT22;52014;52.088;5.096;2022-09-09T10:14:55;17.60;99.90
65404;DHT22;52014;52.088;5.096;2022-09-09T10:22:25;17.20;99.90
65404;DHT22;52014;52.088;5.096;2022-09-09T10:25:01;17.50;99.90
65404;DHT22;52014;52.088;5.096;2022-09-09T10:30:51;17.90;99.90
65404;DHT22;52014;52.088;5.096;2022-09-09T10:35:53;18.50;99.90
65404;DHT22;52014;52.088;5.096;2022-09-09T10:51:47;18.20;99.90
65404;DHT22;52014;52.088;5.096;2022-09-09T10:56:41;18.10;99.90
65404;DHT22;52014;52.088;5.096;2022-09-09T11:04:10;18.40;99.90
65404;DHT22;52014;52.088;5.096;2022-09-09T11:06:39;18.30;99.90
65404;DHT22;52014;52.088;5.096;2022-09-09T11:09:08;18.40;99.90
65404;DHT22;52014;52.088;5.096;2022-09-09T11:14:03;18.20;99.90
65404;DHT22;52014;52.088;5.096;2022-09-09T11:21:42;18.30;99.90
65404;DHT22;52014;52.088;5.096;2022-09-09T11:24:11;18.30;99.90
65404;DHT22;52014;52.088;5.096;2022-09-09T11:32:03;18.20;99.90
65404;DHT22;52014;52.088;5.096;2022-09-09T11:42:41;18.10;99.90
65404;DHT22;52014;52.088;5.096;2022-09-09T11:45:11;18.00;99.90
65404;DHT22;52014;52.088;5.096;2022-09-09T11:47:37;17.90;99.90
65404;DHT22;52014;52.088;5.096;2022-09-09T11:55:11;17.90;99.90
65404;DHT22;52014;52.088;5.096;2022-09-09T11:57:37;17.90;99.90
65404;DHT22;52014;52.088;5.096;2022-09-09T12:00:03;18.00;99.90
65404;DHT22;52014;52.088;5.096;2022-09-09T12:02:29;18.10;99.90
65404;DHT22;52014;52.088;5.096;2022-09-09T12:05:10;18.10;99.90
65404;DHT22;52014;52.088;5.096;2022-09-09T12:07:38;18.10;99.90
65404;DHT22;52014;52.088;5.096;2022-09-09T12:12:34;18.40;99.90
65404;DHT22;52014;52.088;5.096;2022-09-09T12:15:02;18.50;99.90
65404;DHT22;52014;52.088;5.096;2022-09-09T12:17:29;18.70;99.90
65404;DHT22;52014;52.088;5.096;2022-09-09T12:22:38;18.90;99.90
65404;DHT22;52014;52.088;5.096;2022-09-09T12:25:12;18.90;99.90
65404;DHT22;52014;52.088;5.096;2022-09-09T12:27:43;19.00;99.90
65404;DHT22;52014;52.088;5.096;2022-09-09T12:30:12;19.00;99.90
65404;DHT22;52014;52.088;5.096;2022-09-09T12:32:39;19.00;99.90
65404;DHT22;52014;52.088;5.096;2022-09-09T12:35:25;19.00;99.90
65404;DHT22;52014;52.088;5.096;2022-09-09T12:37:53;19.40;99.90
65404;DHT22;52014;52.088;5.096;2022-09-09T12:40:31;19.60;99.90
65404;DHT22;52014;52.088;5.096;2022-09-09T12:43:00;19.80;99.90
65404;DHT22;52014;52.088;5.096;2022-09-09T12:45:27;19.70;99.90
65404;DHT22;52014;52.088;5.096;2022-09-09T12:47:54;19.70;99.90
65404;DHT22;52014;52.088;5.096;2022-09-09T12:50:22;19.60;99.90
65404;DHT22;52014;52.088;5.096;2022-09-09T12:52:48;19.40;99.90
65404;DHT22;52014;52.088;5.096;2022-09-09T12:55:18;19.20;99.90
65404;DHT22;52014;52.088;5.096;2022-09-09T12:57:46;19.10;99.90
65404;DHT22;52014;52.088;5.096;2022-09-09T13:00:16;19.20;99.90
65404;DHT22;52014;52.088;5.096;2022-09-09T13:02:46;19.30;99.90
65404;DHT22;52014;52.088;5.096;2022-09-09T13:05:13;19.20;99.90
65404;DHT22;52014;52.088;5.096;2022-09-09T13:07:39;19.20;99.90
65404;DHT22;52014;52.088;5.096;2022-09-09T13:10:05;19.20;99.90
65404;DHT22;52014;52.088;5.096;2022-09-09T13:12:31;19.30;99.90
65404;DHT22;52014;52.088;5.096;2022-09-09T13:14:56;19.30;99.90
65404;DHT22;52014;52.088;5.096;2022-09-09T13:17:23;19.40;99.90
65404;DHT22;52014;52.088;5.096;2022-09-09T13:19:49;19.50;99.90
65404;DHT22;52014;52.088;5.096;2022-09-09T13:22:29;19.50;99.90
65404;DHT22;52014;52.088;5.096;2022-09-09T13:30:19;19.60;99.90
65404;DHT22;52014;52.088;5.096;2022-09-09T13:32:47;19.60;99.90
65404;DHT22;52014;52.088;5.096;2022-09-09T13:35:23;19.60;99.90
65404;DHT22;52014;52.088;5.096;2022-09-09T13:37:48;19.40;99.90
65404;DHT22;52014;52.088;5.096;2022-09-09T13:40:17;19.40;99.90
65404;DHT22;52014;52.088;5.096;2022-09-09T13:42:43;19.30;99.90
65404;DHT22;52014;52.088;5.096;2022-09-09T13:45:19;19.10;99.90
65404;DHT22;52014;52.088;5.096;2022-09-09T13:47:47;19.10;99.90
65404;DHT22;52014;52.088;5.096;2022-09-09T13:50:24;19.10;99.90
65404;DHT22;52014;52.088;5.096;2022-09-09T13:52:52;19.00;99.90
65404;DHT22;52014;52.088;5.096;2022-09-09T13:55:18;19.00;99.90
65404;DHT22;52014;52.088;5.096;2022-09-09T13:57:57;18.90;99.90
65404;DHT22;52014;52.088;5.096;2022-09-09T14:00:23;18.90;99.90
65404;DHT22;52014;52.088;5.096;2022-09-09T14:02:49;18.70;99.90
65404;DHT22;52014;52.088;5.096;2022-09-09T14:05:15;18.60;99.90
65404;DHT22;52014;52.088;5.096;2022-09-09T14:07:41;18.50;99.90
65404;DHT22;52014;52.088;5.096;2022-09-09T14:10:07;18.40;99.90
65404;DHT22;52014;52.088;5.096;2022-09-09T14:12:33;18.40;99.90
65404;DHT22;52014;52.088;5.096;2022-09-09T14:14:58;18.40;99.90
65404;DHT22;52014;52.088;5.096;2022-09-09T14:17:25;18.30;99.90
65404;DHT22;52014;52.088;5.096;2022-09-09T14:19:54;17.90;99.90
65404;DHT22;52014;52.088;5.096;2022-09-09T14:22:20;17.50;99.90
65404;DHT22;52014;52.088;5.096;2022-09-09T14:24:45;17.40;99.90
65404;DHT22;52014;52.088;5.096;2022-09-09T14:27:11;17.70;99.90
65404;DHT22;52014;52.088;5.096;2022-09-09T14:29:36;17.90;99.90
65404;DHT22;52014;52.088;5.096;2022-09-09T14:32:02;18.00;99.90
65404;DHT22;52014;52.088;5.096;2022-09-09T14:34:27;18.20;99.90
65404;DHT22;52014;52.088;5.096;2022-09-09T14:36:53;18.30;99.90
65404;DHT22;52014;52.088;5.096;2022-09-09T14:39:18;18.30;99.90
65404;DHT22;52014;52.088;5.096;2022-09-09T14:41:44;18.50;99.90
65404;DHT22;52014;52.088;5.096;2022-09-09T14:44:10;18.50;99.90
65404;DHT22;52014;52.088;5.096;2022-09-09T14:46:36;18.30;99.90
65404;DHT22;52014;52.088;5.096;2022-09-09T14:49:01;18.30;99.90
65404;DHT22;52014;52.088;5.096;2022-09-09T14:51:27;18.10;99.90
65404;DHT22;52014;52.088;5.096;2022-09-09T14:53:57;18.10;99.90
65404;DHT22;52014;52.088;5.096;2022-09-09T14:56:23;18.00;99.90
65404;DHT22;52014;52.088;5.096;2022-09-09T14:58:49;17.80;99.90
65404;DHT22;52014;52.088;5.096;2022-09-09T15:01:15;17.70;99.90
65404;DHT22;52014;52.088;5.096;2022-09-09T15:03:42;17.70;99.90
65404;DHT22;52014;52.088;5.096;2022-09-09T15:06:09;17.90;99.90
65404;DHT22;52014;52.088;5.096;2022-09-09T15:08:38;17.90;99.90
65404;DHT22;52014;52.088;5.096;2022-09-09T15:11:04;17.90;99.90
65404;DHT22;52014;52.088;5.096;2022-09-09T15:13:30;17.90;99.90
65404;DHT22;52014;52.088;5.096;2022-09-09T15:15:56;17.90;99.90
65404;DHT22;52014;52.088;5.096;2022-09-09T15:18:23;17.90;99.90
65404;DHT22;52014;52.088;5.096;2022-09-09T15:20:48;17.90;99.90
65404;DHT22;52014;52.088;5.096;2022-09-09T15:23:14;17.80;99.90
65404;DHT22;52014;52.088;5.096;2022-09-09T15:25:54;17.80;99.90
65404;DHT22;52014;52.088;5.096;2022-09-09T15:28:21;17.80;99.90
65404;DHT22;52014;52.088;5.096;2022-09-09T15:30:50;17.90;99.90
65404;DHT22;52014;52.088;5.096;2022-09-09T15:33:17;17.90;99.90
65404;DHT22;52014;52.088;5.096;2022-09-09T15:35:43;17.80;99.90
65404;DHT22;52014;52.088;5.096;2022-09-09T15:38:08;17.90;99.90
65404;DHT22;52014;52.088;5.096;2022-09-09T15:40:33;18.00;99.90
65404;DHT22;52014;52.088;5.096;2022-09-09T15:42:59;18.00;99.90
65404;DHT22;52014;52.088;5.096;2022-09-09T15:45:24;18.00;99.90
65404;DHT22;52014;52.088;5.096;2022-09-09T15:47:50;18.00;99.90
65404;DHT22;52014;52.088;5.096;2022-09-09T15:50:15;18.10;99.90
65404;DHT22;52014;52.088;5.096;2022-09-09T15:52:41;18.10;99.90
65404;DHT22;52014;52.088;5.096;2022-09-09T15:55:07;18.10;99.90
65404;DHT22;52014;52.088;5.096;2022-09-09T15:57:33;18.20;99.90
65404;DHT22;52014;52.088;5.096;2022-09-09T16:00:00;18.20;99.90
65404;DHT22;52014;52.088;5.096;2022-09-09T16:02:25;18.10;99.90
65404;DHT22;52014;52.088;5.096;2022-09-09T16:04:51;18.20;99.90
65404;DHT22;52014;52.088;5.096;2022-09-09T16:07:16;18.10;99.90
65404;DHT22;52014;52.088;5.096;2022-09-09T16:09:41;18.20;99.90
65404;DHT22;52014;52.088;5.096;2022-09-09T16:12:08;18.10;99.90
65404;DHT22;52014;52.088;5.096;2022-09-09T16:14:38;18.00;99.90
65404;DHT22;52014;52.088;5.096;2022-09-09T16:17:04;18.00;99.90
65404;DHT22;52014;52.088;5.096;2022-09-09T16:19:30;18.00;99.90
65404;DHT22;52014;52.088;5.096;2022-09-09T16:21:56;17.90;99.90
65404;DHT22;52014;52.088;5.096;2022-09-09T16:24:22;17.90;99.90
65404;DHT22;52014;52.088;5.096;2022-09-09T16:26:50;17.90;99.90
65404;DHT22;52014;52.088;5.096;2022-09-09T16:29:16;17.90;99.90
65404;DHT22;52014;52.088;5.096;2022-09-09T16:31:42;17.90;99.90
65404;DHT22;52014;52.088;5.096;2022-09-09T16:34:08;17.80;99.90
65404;DHT22;52014;52.088;5.096;2022-09-09T16:36:35;17.80;99.90
65404;DHT22;52014;52.088;5.096;2022-09-09T16:39:02;17.80;99.90
65404;DHT22;52014;52.088;5.096;2022-09-09T16:41:28;17.80;99.90
65404;DHT22;52014;52.088;5.096;2022-09-09T16:43:54;17.90;99.90
65404;DHT22;52014;52.088;5.096;2022-09-09T16:46:20;17.80;99.90
65404;DHT22;52014;52.088;5.096;2022-09-09T16:48:46;17.90;99.90
65404;DHT22;52014;52.088;5.096;2022-09-09T16:51:13;17.90;99.90
65404;DHT22;52014;52.088;5.096;2022-09-09T16:53:40;17.90;99.90
65404;DHT22;52014;52.088;5.096;2022-09-09T16:56:07;17.90;99.90
65404;DHT22;52014;52.088;5.096;2022-09-09T16:58:34;17.90;99.90
65404;DHT22;52014;52.088;5.096;2022-09-09T17:01:01;17.90;99.90
65404;DHT22;52014;52.088;5.096;2022-09-09T17:03:28;17.80;99.90
65404;DHT22;52014;52.088;5.096;2022-09-09T17:05:54;17.90;99.90
65404;DHT22;52014;52.088;5.096;2022-09-09T17:08:19;17.90;99.90
65404;DHT22;52014;52.088;5.096;2022-09-09T17:10:44;17.90;99.90
65404;DHT22;52014;52.088;5.096;2022-09-09T17:13:10;17.90;99.90
65404;DHT22;52014;52.088;5.096;2022-09-09T17:15:41;17.90;99.90
65404;DHT22;52014;52.088;5.096;2022-09-09T17:18:10;17.80;99.90
65404;DHT22;52014;52.088;5.096;2022-09-09T17:20:36;17.90;99.90
65404;DHT22;52014;52.088;5.096;2022-09-09T17:23:02;17.90;99.90
65404;DHT22;52014;52.088;5.096;2022-09-09T17:25:27;17.80;99.90
65404;DHT22;52014;52.088;5.096;2022-09-09T17:27:53;17.90;99.90
65404;DHT22;52014;52.088;5.096;2022-09-09T17:30:18;17.90;99.90
65404;DHT22;52014;52.088;5.096;2022-09-09T17:32:44;17.90;99.90
65404;DHT22;52014;52.088;5.096;2022-09-09T17:35:09;18.00;99.90